Time;durP1;ratioP1;P1;durP2;ratioP2;P2;SDS_P1;SDS_P2;PMS_P1;PMS_P2;Temp;Humidity;BMP_temperature;BMP_pressure;BME280_temperature;BME280_humidity;BME280_pressure;Samples;Min_cycle;Max_cycle;Signal;HPM_P1;HPM_P2
2022/10/04 00:00:07;;;;;;;11.75;3.50;;;21.00;87.00;;;;;;5032287;28;20112;-73
2022/10/04 00:02:33;;;;;;;11.10;3.80;;;21.00;87.30;;;;;;5033659;28;20501;-73
2022/10/04 00:05:07;;;;;;;12.88;3.70;;;21.00;87.10;;;;;;5035557;28;20053;-74
2022/10/04 00:07:56;;;;;;;10.95;3.92;;;20.90;87.40;;;;;;5035734;28;20053;-73
2022/10/04 00:10:27;;;;;;;10.73;3.45;;;20.90;87.30;;;;;;5067599;28;20367;-73
2022/10/04 00:13:06;;;;;;;9.27;3.97;;;20.80;87.30;;;;;;5035653;28;20041;-73
2022/10/04 00:15:39;;;;;;;9.90;3.30;;;20.80;87.40;;;;;;5067483;28;20472;-73
2022/10/04 00:18:10;;;;;;;7.30;3.38;;;20.80;87.40;;;;;;5035650;28;20026;-74
2022/10/04 00:20:52;;;;;;;11.00;3.85;;;20.70;87.30;;;;;;5035708;28;20434;-74
2022/10/04 00:23:23;;;;;;;10.38;3.42;;;20.70;87.80;;;;;;5067410;28;20036;-74
2022/10/04 00:26:03;;;;;;;9.70;3.55;;;20.70;87.60;;;;;;5035330;28;20038;-74
2022/10/04 00:28:51;;;;;;;10.35;3.50;;;20.70;88.10;;;;;;5067375;28;20017;-73
2022/10/04 00:31:25;;;;;;;8.63;3.30;;;20.60;87.50;;;;;;5035339;28;20375;-73
2022/10/04 00:34:03;;;;;;;10.65;3.67;;;20.60;88.30;;;;;;5067100;28;20049;-73
2022/10/04 00:36:36;;;;;;;7.18;2.90;;;20.50;88.10;;;;;;5067318;28;20033;-73
2022/10/04 00:39:09;;;;;;;9.35;3.30;;;20.50;87.80;;;;;;5035204;28;20049;-73
2022/10/04 00:42:02;;;;;;;8.77;3.65;;;20.50;87.80;;;;;;5035164;28;20025;-73
2022/10/04 00:44:43;;;;;;;9.60;3.28;;;20.50;88.10;;;;;;5035026;28;20036;-74
2022/10/04 00:47:34;;;;;;;11.68;3.90;;;20.50;88.30;;;;;;5035062;28;20033;-73
2022/10/04 00:50:22;;;;;;;12.73;3.40;;;20.40;88.40;;;;;;5034987;28;20026;-73
2022/10/04 00:52:54;;;;;;;14.52;4.43;;;20.40;87.90;;;;;;5034341;28;20041;-73
2022/10/04 00:55:54;;;;;;;8.65;3.28;;;20.40;87.90;;;;;;5034744;28;20024;-73
2022/10/04 00:58:31;;;;;;;11.05;3.58;;;20.40;88.40;;;;;;5024119;28;20038;-73
2022/10/04 01:00:58;;;;;;;9.43;3.80;;;20.30;87.90;;;;;;5034667;28;20029;-73
2022/10/04 01:03:38;;;;;;;10.73;3.35;;;20.30;88.00;;;;;;5066648;28;20025;-73
2022/10/04 01:06:07;;;;;;;10.23;3.25;;;20.30;88.40;;;;;;5066413;28;20068;-74
2022/10/04 01:08:48;;;;;;;12.80;3.53;;;20.30;88.20;;;;;;5066639;28;20022;-74
2022/10/04 01:11:27;;;;;;;13.82;3.80;;;20.30;88.20;;;;;;5034626;28;20033;-74
2022/10/04 01:13:57;;;;;;;12.13;3.70;;;20.30;88.90;;;;;;5039461;28;20075;-72
2022/10/04 01:16:33;;;;;;;11.50;3.60;;;20.30;89.00;;;;;;5054314;28;20115;-72
2022/10/04 01:19:20;;;;;;;8.77;3.38;;;20.30;88.50;;;;;;5054736;28;20112;-74
2022/10/04 01:21:57;;;;;;;9.50;3.47;;;20.30;89.00;;;;;;5054710;28;20465;-73
2022/10/04 01:24:23;;;;;;;11.20;3.88;;;20.30;88.60;;;;;;5054353;28;20031;-73
2022/10/04 01:26:49;;;;;;;9.07;3.33;;;20.30;88.70;;;;;;5054240;28;20028;-75
2022/10/04 01:29:26;;;;;;;9.38;3.40;;;20.30;88.90;;;;;;5052960;28;20140;-73
2022/10/04 01:31:54;;;;;;;11.40;3.53;;;20.30;89.00;;;;;;5054259;28;20048;-72
2022/10/04 01:34:24;;;;;;;7.00;3.33;;;20.30;88.80;;;;;;5054453;28;20461;-74
2022/10/04 01:36:53;;;;;;;13.00;3.67;;;20.30;89.20;;;;;;5054183;28;20029;-74
2022/10/04 01:39:21;;;;;;;8.55;3.83;;;20.20;88.70;;;;;;5054213;28;20470;-73
2022/10/04 01:42:08;;;;;;;8.30;3.20;;;20.20;89.20;;;;;;5054096;28;20112;-74
2022/10/04 01:44:40;;;;;;;11.00;3.53;;;20.20;89.50;;;;;;5054042;28;20485;-74
2022/10/04 01:47:13;;;;;;;7.85;3.20;;;20.20;89.10;;;;;;5054191;28;20044;-74
2022/10/04 01:49:42;;;;;;;9.18;3.38;;;20.10;89.20;;;;;;5054058;28;20100;-74
2022/10/04 01:52:21;;;;;;;7.90;3.42;;;20.10;89.30;;;;;;5053838;28;20028;-73
2022/10/04 01:54:52;;;;;;;9.73;3.50;;;20.00;89.40;;;;;;5053819;28;20025;-74
2022/10/04 01:57:25;;;;;;;8.93;3.58;;;20.00;89.80;;;;;;5054012;28;20029;-74
2022/10/04 02:00:00;;;;;;;;;;;20.00;89.90;;;;;;5054278;28;20033;-73
2022/10/04 02:02:40;;;;;;;11.10;3.58;;;20.00;90.30;;;;;;5052356;28;20302;-73
2022/10/04 02:05:10;;;;;;;13.35;3.58;;;20.00;90.00;;;;;;5053435;28;20068;-74
2022/10/04 02:07:38;;;;;;;12.02;3.83;;;20.00;89.60;;;;;;5052395;28;20029;-72
2022/10/04 02:10:08;;;;;;;14.13;3.25;;;20.00;89.80;;;;;;5053570;28;20528;-73
2022/10/04 02:12:34;;;;;;;8.30;3.22;;;20.00;90.00;;;;;;5053571;28;20024;-73
2022/10/04 02:15:02;;;;;;;9.82;4.00;;;20.00;90.10;;;;;;5053433;28;20389;-73
2022/10/04 02:17:37;;;;;;;8.98;3.50;;;20.00;90.00;;;;;;5051988;28;20025;-72
2022/10/04 02:20:16;;;;;;;12.45;3.38;;;20.00;89.90;;;;;;5052168;28;20434;-73
2022/10/04 02:22:44;;;;;;;9.50;3.40;;;20.00;90.10;;;;;;5053255;28;20029;-74
2022/10/04 02:25:12;;;;;;;9.30;3.35;;;20.00;90.00;;;;;;5052956;28;20183;-73
2022/10/04 02:27:38;;;;;;;8.80;3.25;;;20.00;89.80;;;;;;5053156;28;20040;-73
2022/10/04 02:30:10;;;;;;;12.38;3.42;;;20.00;90.00;;;;;;5052018;28;20373;-73
2022/10/04 02:32:56;;;;;;;7.05;3.72;;;20.00;90.00;;;;;;5051822;28;20139;-74
2022/10/04 02:35:28;;;;;;;16.77;4.45;;;20.00;90.10;;;;;;5051852;28;20111;-73
2022/10/04 02:38:09;;;;;;;9.73;3.28;;;20.00;90.10;;;;;;5053129;28;20470;-74
2022/10/04 02:40:47;;;;;;;11.38;3.78;;;19.90;90.30;;;;;;5052917;28;20032;-73
2022/10/04 02:43:23;;;;;;;11.57;3.38;;;19.90;90.00;;;;;;5053318;28;20033;-73
2022/10/04 02:45:59;;;;;;;7.65;3.13;;;19.90;90.10;;;;;;5052865;28;20485;-73
2022/10/04 02:48:31;;;;;;;11.05;3.63;;;19.90;90.20;;;;;;5052948;28;20032;-73
2022/10/04 02:51:13;;;;;;;9.60;3.15;;;19.90;90.30;;;;;;5053220;28;20494;-73
2022/10/04 02:54:29;;;;;;;11.85;3.90;;;19.90;90.40;;;;;;5051541;28;20049;-74
2022/10/04 02:56:57;;;;;;;8.35;3.10;;;19.90;90.50;;;;;;5008494;28;20104;-74
2022/10/04 02:59:23;;;;;;;8.60;2.80;;;19.90;90.10;;;;;;5051546;28;20116;-74
2022/10/04 03:01:55;;;;;;;6.35;2.60;;;19.90;90.10;;;;;;5052748;28;20537;-73
2022/10/04 03:04:33;;;;;;;9.57;3.28;;;19.90;90.20;;;;;;5052812;28;20481;-74
2022/10/04 03:07:01;;;;;;;10.20;3.25;;;19.90;90.30;;;;;;5051412;28;20437;-74
2022/10/04 03:09:28;;;;;;;7.13;3.33;;;19.80;90.30;;;;;;5052713;28;20106;-73
2022/10/04 03:11:54;;;;;;;11.25;3.15;;;19.80;90.20;;;;;;5052524;28;20049;-73
2022/10/04 03:14:26;;;;;;;6.63;2.97;;;19.80;90.20;;;;;;5052580;28;20374;-73
2022/10/04 03:16:59;;;;;;;8.00;3.53;;;19.80;90.20;;;;;;5052770;28;20049;-73
2022/10/04 03:19:28;;;;;;;12.25;3.60;;;19.70;90.20;;;;;;5052716;28;20017;-73
2022/10/04 03:21:58;;;;;;;11.10;4.22;;;19.60;90.40;;;;;;5051315;28;20158;-74
2022/10/04 03:24:38;;;;;;;10.57;3.38;;;19.60;90.40;;;;;;5052666;28;20061;-74
2022/10/04 03:27:07;;;;;;;14.20;3.95;;;19.60;90.60;;;;;;5052757;28;20064;-73
2022/10/04 03:29:34;;;;;;;8.35;3.17;;;19.60;90.50;;;;;;5052561;28;20150;-73
2022/10/04 03:32:03;;;;;;;10.60;3.60;;;19.50;90.40;;;;;;5052378;28;20029;-73
2022/10/04 03:34:39;;;;;;;10.05;3.28;;;19.50;90.50;;;;;;5052972;28;20029;-72
2022/10/04 03:37:13;;;;;;;8.38;3.25;;;19.50;90.70;;;;;;5053624;28;20481;-74
2022/10/04 03:39:45;;;;;;;10.10;3.65;;;19.50;90.50;;;;;;5056970;28;20025;-74
2022/10/04 03:42:15;;;;;;;7.63;3.20;;;19.50;90.40;;;;;;5056411;28;20033;-74
2022/10/04 03:44:43;;;;;;;7.88;2.92;;;19.40;90.30;;;;;;5054649;28;20029;-72
2022/10/04 03:47:26;;;;;;;7.70;2.80;;;19.40;90.20;;;;;;5056086;28;20036;-72
2022/10/04 03:49:54;;;;;;;7.43;3.15;;;19.50;90.50;;;;;;5054832;28;20427;-73
2022/10/04 03:52:31;;;;;;;10.65;3.67;;;19.40;90.10;;;;;;5056254;28;20050;-72
2022/10/04 03:55:00;;;;;;;7.93;3.28;;;19.40;90.10;;;;;;5056073;28;20017;-74
2022/10/04 03:57:27;;;;;;;9.48;2.85;;;19.40;90.00;;;;;;5054541;28;20031;-74
2022/10/04 03:59:53;;;;;;;7.57;3.10;;;19.40;89.80;;;;;;5054665;28;20025;-74
2022/10/04 04:02:28;;;;;;;10.10;3.13;;;19.30;89.80;;;;;;5056099;28;20365;-73
2022/10/04 04:05:14;;;;;;;9.77;3.63;;;19.30;90.00;;;;;;5055494;28;20036;-74
2022/10/04 04:07:44;;;;;;;7.80;3.20;;;19.30;89.90;;;;;;5055922;28;20040;-74
2022/10/04 04:10:28;;;;;;;9.70;3.03;;;19.30;89.60;;;;;;5055622;28;20016;-75
2022/10/04 04:13:04;;;;;;;10.35;3.03;;;19.30;89.20;;;;;;5055502;28;20103;-73
2022/10/04 04:15:32;;;;;;;9.38;3.00;;;19.30;88.70;;;;;;5055469;28;20029;-73
2022/10/04 04:18:04;;;;;;;7.50;3.15;;;19.30;88.40;;;;;;5055464;28;20021;-73
2022/10/04 04:20:32;;;;;;;6.93;2.85;;;19.30;88.30;;;;;;5054140;28;20029;-74
2022/10/04 04:23:03;;;;;;;7.57;3.00;;;19.30;88.00;;;;;;5054076;28;20021;-73
2022/10/04 04:25:32;;;;;;;13.55;3.45;;;19.30;87.80;;;;;;5054235;28;20381;-73
2022/10/04 04:28:11;;;;;;;11.43;3.15;;;19.30;87.80;;;;;;5054145;28;20056;-74
2022/10/04 04:30:42;;;;;;;6.82;3.08;;;19.30;87.60;;;;;;5055449;28;20493;-74
2022/10/04 04:33:22;;;;;;;9.85;3.00;;;19.20;87.60;;;;;;5054123;28;20375;-73
2022/10/04 04:35:54;;;;;;;7.90;2.97;;;19.20;87.60;;;;;;5054985;28;20537;-73
2022/10/04 04:38:25;;;;;;;8.10;2.92;;;19.20;87.50;;;;;;5055439;28;20028;-75
2022/10/04 04:40:54;;;;;;;10.70;3.20;;;19.20;87.60;;;;;;5054454;28;20029;-74
2022/10/04 04:43:25;;;;;;;8.50;2.75;;;19.20;87.20;;;;;;5056147;28;20032;-74
2022/10/04 04:45:52;;;;;;;7.30;2.95;;;19.20;87.00;;;;;;5055459;28;20059;-71
2022/10/04 04:48:20;;;;;;;9.45;3.50;;;19.20;87.00;;;;;;5054768;28;20470;-73
2022/10/04 04:50:53;;;;;;;8.00;3.28;;;19.10;86.60;;;;;;5058217;28;20036;-74
2022/10/04 04:53:22;;;;;;;9.13;3.17;;;19.10;86.80;;;;;;5055345;28;20070;-73
2022/10/04 04:56:04;;;;;;;9.48;2.80;;;19.10;86.50;;;;;;5054538;28;20025;-75
2022/10/04 04:58:36;;;;;;;11.52;3.63;;;19.10;87.40;;;;;;5054713;28;20098;-73
2022/10/04 05:01:25;;;;;;;10.15;3.17;;;19.10;87.30;;;;;;5053360;28;20025;-74
2022/10/04 05:04:14;;;;;;;6.15;2.97;;;19.00;86.70;;;;;;5052319;28;20029;-74
2022/10/04 05:07:03;;;;;;;11.35;4.25;;;19.00;87.20;;;;;;5053066;28;20105;-72
2022/10/04 05:09:31;;;;;;;8.15;3.60;;;19.00;87.20;;;;;;5054568;28;20100;-73
2022/10/04 05:12:21;;;;;;;8.80;3.22;;;18.90;86.90;;;;;;5054568;28;20025;-74
2022/10/04 05:14:51;;;;;;;7.32;3.00;;;18.90;87.50;;;;;;5054642;28;20017;-75
2022/10/04 05:17:24;;;;;;;10.90;3.78;;;18.90;87.00;;;;;;5054545;28;20021;-73
2022/10/04 05:19:51;;;;;;;7.50;3.22;;;18.90;87.20;;;;;;5054471;28;20021;-75
2022/10/04 05:22:21;;;;;;;7.90;3.35;;;18.90;87.00;;;;;;5046438;28;20440;-68
2022/10/04 05:24:55;;;;;;;7.05;3.20;;;18.90;87.20;;;;;;5052668;28;20055;-70
2022/10/04 05:27:36;;;;;;;11.70;3.45;;;18.80;87.30;;;;;;5053853;28;20051;-71
2022/10/04 05:30:24;;;;;;;8.07;3.78;;;18.80;87.30;;;;;;5054081;28;20013;-73
2022/10/04 05:33:04;;;;;;;8.00;3.80;;;18.80;87.50;;;;;;5052685;28;20041;-73
2022/10/04 05:35:46;;;;;;;8.45;3.20;;;18.80;87.90;;;;;;5053951;28;20098;-73
2022/10/04 05:38:37;;;;;;;10.45;4.13;;;18.80;87.70;;;;;;5053756;28;20070;-73
2022/10/04 05:41:28;;;;;;;9.65;3.40;;;18.80;87.60;;;;;;5053774;28;20090;-72
2022/10/04 05:43:54;;;;;;;9.60;3.50;;;18.80;87.10;;;;;;5054120;28;20017;-71
2022/10/04 05:46:20;;;;;;;11.40;4.03;;;18.80;87.20;;;;;;5053630;28;20455;-72
2022/10/04 05:48:52;;;;;;;9.25;3.75;;;18.90;87.20;;;;;;5053410;28;20077;-73
2022/10/04 05:51:21;;;;;;;8.75;3.40;;;18.90;87.30;;;;;;5053707;28;20013;-72
2022/10/04 05:53:48;;;;;;;8.43;3.80;;;18.80;86.80;;;;;;5051814;28;20373;-73
2022/10/04 05:56:29;;;;;;;10.80;3.45;;;18.90;86.90;;;;;;5053156;28;20013;-72
2022/10/04 05:59:13;;;;;;;11.10;3.55;;;18.90;87.10;;;;;;5047240;28;20037;-73
2022/10/04 06:02:00;;;;;;;8.57;3.22;;;19.00;86.70;;;;;;5043487;28;20048;-72
2022/10/04 06:04:54;;;;;;;8.30;3.47;;;19.00;86.80;;;;;;5047980;28;20086;-72
2022/10/04 06:07:29;;;;;;;7.07;3.28;;;19.10;86.60;;;;;;5038822;28;20055;-72
2022/10/04 06:10:09;;;;;;;7.15;3.00;;;19.20;85.80;;;;;;5040539;28;20124;-73
2022/10/04 06:12:54;;;;;;;10.38;3.55;;;19.30;85.90;;;;;;5033146;28;20103;-73
2022/10/04 06:15:33;;;;;;;12.13;3.60;;;19.50;85.40;;;;;;5033163;28;20021;-76
2022/10/04 06:18:07;;;;;;;8.23;2.80;;;19.60;84.70;;;;;;5034606;28;20099;-75
2022/10/04 06:20:53;;;;;;;12.18;3.63;;;19.70;84.20;;;;;;5040387;28;20033;-75
2022/10/04 06:23:20;;;;;;;9.02;2.97;;;19.80;83.30;;;;;;5052895;28;20051;-75
2022/10/04 06:25:57;;;;;;;9.93;3.80;;;19.90;82.90;;;;;;5052909;28;20059;-73
2022/10/04 06:28:35;;;;;;;10.45;3.58;;;20.10;83.20;;;;;;5053059;28;20104;-75
2022/10/04 06:31:19;;;;;;;12.48;3.80;;;20.20;81.70;;;;;;5052965;28;20025;-74
2022/10/04 06:33:54;;;;;;;;;;;20.40;82.40;;;;;;5053498;28;20379;-75
2022/10/04 06:36:32;;;;;;;11.50;3.60;;;20.60;81.80;;;;;;5049334;28;19909;-75
2022/10/04 06:39:04;;;;;;;12.93;3.70;;;20.80;81.40;;;;;;5051728;28;20032;-73
2022/10/04 06:42:04;;;;;;;12.25;3.72;;;20.90;80.00;;;;;;5047086;28;20360;-73
2022/10/04 06:44:51;;;;;;;15.35;3.53;;;21.00;79.70;;;;;;5053075;28;20033;-73
2022/10/04 06:47:27;;;;;;;12.65;3.60;;;21.10;79.50;;;;;;5052215;28;20031;-76
2022/10/04 06:50:04;;;;;;;11.88;3.70;;;21.20;78.30;;;;;;5052108;28;20021;-74
2022/10/04 06:52:47;;;;;;;10.57;3.10;;;21.30;79.10;;;;;;5052723;28;20051;-74
2022/10/04 06:55:47;;;;;;;25.80;4.77;;;21.30;77.70;;;;;;5052813;28;20079;-74
2022/10/04 06:58:34;;;;;;;12.93;3.80;;;21.30;78.20;;;;;;5049477;28;20266;-74
2022/10/04 07:01:21;;;;;;;16.90;4.28;;;21.30;78.20;;;;;;5052799;28;20040;-73
2022/10/04 07:03:52;;;;;;;12.43;3.72;;;21.40;78.30;;;;;;5046178;28;20029;-74
2022/10/04 07:06:26;;;;;;;10.73;3.30;;;21.50;77.20;;;;;;5033489;28;20061;-73
2022/10/04 07:09:01;;;;;;;11.82;3.25;;;21.70;77.20;;;;;;5051406;28;20029;-71
2022/10/04 07:11:47;;;;;;;9.38;3.22;;;21.70;76.70;;;;;;5068151;28;20033;-70
2022/10/04 07:14:17;;;;;;;7.97;2.75;;;21.80;76.20;;;;;;5055937;28;20033;-75
2022/10/04 07:16:53;;;;;;;9.43;3.13;;;21.80;75.50;;;;;;5056319;28;20027;-75
2022/10/04 07:19:19;;;;;;;23.92;3.78;;;21.80;75.40;;;;;;5072793;28;20060;-74
2022/10/04 07:22:06;;;;;;;13.93;3.25;;;21.90;75.30;;;;;;5048724;28;20035;-74
2022/10/04 07:24:50;;;;;;;12.88;3.30;;;21.90;74.80;;;;;;5052043;28;20017;-74
2022/10/04 07:27:37;;;;;;;9.70;2.92;;;21.90;74.40;;;;;;5055623;28;20068;-73
2022/10/04 07:30:07;;;;;;;8.77;2.80;;;21.90;74.00;;;;;;5053877;28;20024;-73
2022/10/04 07:32:42;;;;;;;10.10;3.47;;;21.90;72.70;;;;;;5053964;28;20083;-74
2022/10/04 07:35:08;;;;;;;11.35;2.75;;;22.00;72.60;;;;;;5056496;28;20052;-75
2022/10/04 07:37:45;;;;;;;8.88;3.17;;;21.90;71.90;;;;;;5058262;28;20029;-75
2022/10/04 07:40:40;;;;;;;7.85;2.97;;;21.90;72.20;;;;;;5056119;28;20024;-76
2022/10/04 07:43:13;;;;;;;7.47;3.10;;;21.90;71.80;;;;;;5055604;28;20097;-74
2022/10/04 07:45:40;;;;;;;7.82;3.20;;;22.00;72.40;;;;;;5055711;28;20037;-74
2022/10/04 07:48:14;;;;;;;10.55;3.72;;;22.10;71.20;;;;;;5055513;28;20060;-74
2022/10/04 07:50:58;;;;;;;;;;;22.10;71.00;;;;;;5056429;28;20048;-74
2022/10/04 07:53:31;;;;;;;8.95;3.35;;;22.10;70.50;;;;;;5055486;28;19912;-72
2022/10/04 07:56:15;;;;;;;11.98;3.33;;;22.10;71.50;;;;;;5055637;28;20137;-74
2022/10/04 07:58:52;;;;;;;14.60;3.40;;;22.10;71.30;;;;;;5053078;28;20036;-73
2022/10/04 08:01:30;;;;;;;12.48;3.60;;;22.00;70.90;;;;;;5055586;28;20032;-73
2022/10/04 08:04:18;;;;;;;13.88;3.25;;;22.00;71.00;;;;;;5053889;28;20043;-74
2022/10/04 08:07:02;;;;;;;15.35;3.40;;;22.00;71.30;;;;;;5055160;28;20497;-74
2022/10/04 08:09:41;;;;;;;13.90;3.20;;;22.00;71.50;;;;;;5055356;28;20028;-74
2022/10/04 08:12:16;;;;;;;16.85;3.40;;;22.00;71.20;;;;;;5054357;28;20036;-74
2022/10/04 08:15:08;;;;;;;7.88;2.80;;;22.00;71.30;;;;;;5047509;28;20033;-74
2022/10/04 08:18:02;;;;;;;29.30;5.38;;;22.10;71.20;;;;;;5027906;28;20034;-73
2022/10/04 08:20:57;;;;;;;8.20;2.88;;;22.10;71.10;;;;;;5040699;28;20040;-77
2022/10/04 08:24:00;;;;;;;9.38;2.80;;;22.10;71.10;;;;;;5038941;28;20039;-76
2022/10/04 08:26:55;;;;;;;13.80;3.50;;;22.10;70.80;;;;;;5037706;28;20045;-73
2022/10/04 08:29:46;;;;;;;13.60;3.58;;;22.10;70.90;;;;;;5014333;28;20041;-75
2022/10/04 08:32:31;;;;;;;11.38;3.25;;;22.20;70.90;;;;;;5038531;28;20037;-72
2022/10/04 08:35:21;;;;;;;9.35;2.65;;;22.20;70.30;;;;;;5038126;28;20062;-79
2022/10/04 08:38:08;;;;;;;8.27;2.88;;;22.20;70.10;;;;;;5037961;28;20746;-71
2022/10/04 08:41:00;;;;;;;19.52;4.05;;;22.20;70.10;;;;;;5038164;28;20559;-71
2022/10/04 08:44:04;;;;;;;7.85;2.70;;;22.20;69.80;;;;;;5007138;28;20037;-73
2022/10/04 08:46:58;;;;;;;8.77;2.50;;;22.20;69.70;;;;;;5037693;28;20045;-73
2022/10/04 08:49:38;;;;;;;16.35;3.90;;;22.30;69.80;;;;;;5038097;28;20131;-73
2022/10/04 08:52:33;;;;;;;56.15;9.95;;;22.40;70.10;;;;;;5038097;28;20031;-71
2022/10/04 08:55:39;;;;;;;12.95;2.95;;;22.40;69.40;;;;;;4983118;28;20960;-70
2022/10/04 08:58:22;;;;;;;7.82;2.60;;;22.50;69.10;;;;;;5038071;28;20033;-71
2022/10/04 09:01:12;;;;;;;7.15;2.45;;;22.50;69.30;;;;;;5036733;28;20094;-72
2022/10/04 09:04:20;;;;;;;10.18;2.60;;;22.60;69.10;;;;;;5037818;28;20036;-70
2022/10/04 09:07:11;;;;;;;9.40;2.80;;;22.60;69.50;;;;;;5037490;28;20144;-73
2022/10/04 09:10:05;;;;;;;10.82;2.67;;;22.60;69.30;;;;;;5037846;28;20040;-73
2022/10/04 09:12:49;;;;;;;7.72;2.70;;;22.70;69.50;;;;;;5037700;28;20029;-70
2022/10/04 09:15:56;;;;;;;8.25;2.55;;;22.80;69.80;;;;;;5035932;28;20029;-74
2022/10/04 09:18:44;;;;;;;6.38;2.40;;;22.90;69.80;;;;;;4956465;28;20046;-71
2022/10/04 09:21:11;;;;;;;7.50;2.40;;;22.90;69.60;;;;;;5032298;28;20041;-71
2022/10/04 09:23:48;;;;;;;7.10;2.17;;;22.90;69.50;;;;;;5036008;28;20048;-71
2022/10/04 09:26:43;;;;;;;11.82;2.42;;;23.00;69.40;;;;;;5037156;28;20056;-72
2022/10/04 09:29:29;;;;;;;11.10;3.50;;;23.00;69.70;;;;;;5035394;28;20040;-72
2022/10/04 09:32:14;;;;;;;7.15;2.70;;;23.10;69.30;;;;;;5036220;28;20493;-72
2022/10/04 09:34:51;;;;;;;6.65;2.30;;;23.20;69.10;;;;;;5034843;28;20029;-71
2022/10/04 09:37:50;;;;;;;7.75;3.05;;;23.30;68.90;;;;;;5035994;28;20144;-73
2022/10/04 09:40:30;;;;;;;10.43;3.05;;;23.40;69.40;;;;;;5003139;28;20040;-74
2022/10/04 09:43:28;;;;;;;11.60;2.90;;;23.40;68.40;;;;;;5039326;28;20035;-71
2022/10/04 09:46:14;;;;;;;9.55;3.10;;;23.50;68.30;;;;;;5037992;28;20082;-72
2022/10/04 09:49:17;;;;;;;8.60;2.30;;;23.60;68.20;;;;;;5039660;28;20474;-73
2022/10/04 09:52:04;;;;;;;7.97;2.35;;;23.60;68.00;;;;;;5039482;28;20036;-72
2022/10/04 09:54:37;;;;;;;6.05;2.45;;;23.70;68.10;;;;;;5039176;28;20409;-71
2022/10/04 09:57:16;;;;;;;12.45;2.55;;;23.80;67.90;;;;;;5037697;28;20072;-73
2022/10/04 10:00:09;;;;;;;8.88;2.30;;;23.80;67.60;;;;;;5039101;28;20056;-72
2022/10/04 10:02:39;;;;;;;10.52;2.78;;;23.90;68.10;;;;;;5037669;28;20885;-70
2022/10/04 10:05:15;;;;;;;9.57;2.65;;;23.90;67.30;;;;;;5038454;28;20556;-73
2022/10/04 10:08:07;;;;;;;8.52;2.75;;;23.90;66.90;;;;;;5039152;28;20036;-73
2022/10/04 10:14:19;;;;;;;8.35;2.55;;;24.10;66.70;;;;;;5039321;28;20047;-71
2022/10/04 10:17:19;;;;;;;9.35;2.65;;;24.20;66.50;;;;;;5012006;28;20059;-71
2022/10/04 10:19:48;;;;;;;8.90;2.80;;;24.30;66.30;;;;;;5037795;28;20045;-70
2022/10/04 10:22:35;;;;;;;13.93;3.28;;;24.30;67.00;;;;;;5038723;28;20036;-69
2022/10/04 10:25:38;;;;;;;13.20;2.78;;;24.40;66.30;;;;;;5038692;28;20037;-71
2022/10/04 10:28:24;;;;;;;14.32;3.00;;;24.50;65.90;;;;;;5039019;28;20048;-71
2022/10/04 10:31:08;;;;;;;11.30;3.10;;;24.50;66.60;;;;;;5003959;28;20041;-68
2022/10/04 10:33:45;;;;;;;7.90;2.75;;;24.60;65.70;;;;;;5038647;28;20055;-71
2022/10/04 10:36:26;;;;;;;9.63;2.60;;;24.70;64.90;;;;;;5038617;28;20029;-71
2022/10/04 10:39:10;;;;;;;8.23;2.80;;;24.70;65.60;;;;;;5038224;28;20063;-72
2022/10/04 10:41:45;;;;;;;9.57;2.83;;;24.80;65.10;;;;;;5038342;28;20029;-71
2022/10/04 10:44:10;;;;;;;13.23;3.85;;;24.80;65.30;;;;;;5036554;28;20151;-71
2022/10/04 10:46:51;;;;;;;10.57;3.13;;;24.90;65.50;;;;;;5038000;28;20068;-71
2022/10/04 10:49:29;;;;;;;8.95;2.92;;;24.90;64.70;;;;;;5037857;28;20090;-70
2022/10/04 10:52:09;;;;;;;8.30;2.80;;;24.90;64.50;;;;;;5037603;28;20164;-72
2022/10/04 10:55:00;;;;;;;8.05;2.45;;;25.00;64.80;;;;;;5039425;28;20067;-71
2022/10/04 10:58:01;;;;;;;8.30;2.55;;;25.10;64.50;;;;;;5055297;22;20146;-73
2022/10/04 11:01:02;;;;;;;7.22;2.60;;;25.20;63.80;;;;;;5021153;28;20113;-75
2022/10/04 11:04:05;;;;;;;9.68;3.50;;;25.30;63.30;;;;;;5025678;28;20076;-81
2022/10/04 11:07:05;;;;;;;5.38;2.50;;;25.50;63.10;;;;;;5038216;28;20095;-73
2022/10/04 11:09:59;;;;;;;8.55;2.90;;;25.60;62.80;;;;;;5037681;28;20053;-76
2022/10/04 11:12:56;;;;;;;6.10;2.67;;;25.70;63.30;;;;;;5038234;28;20057;-76
2022/10/04 11:15:56;;;;;;;8.43;2.97;;;25.90;62.70;;;;;;5038275;28;20040;-70
2022/10/04 11:18:24;;;;;;;7.50;2.97;;;25.90;62.70;;;;;;5038742;28;20127;-81
2022/10/04 11:21:11;;;;;;;10.50;2.85;;;26.00;62.70;;;;;;5040993;28;20029;-79
2022/10/04 11:24:36;;;;;;;8.80;2.90;;;26.10;62.10;;;;;;5051781;28;20032;-76
2022/10/04 11:27:34;;;;;;;11.30;2.60;;;26.20;61.40;;;;;;4985039;28;20438;-78
2022/10/04 11:30:23;;;;;;;13.93;4.25;;;26.30;61.60;;;;;;4992369;28;20073;-77
2022/10/04 11:33:08;;;;;;;12.35;3.60;;;26.40;62.40;;;;;;5052871;28;20033;-79
2022/10/04 11:35:35;;;;;;;10.25;3.42;;;26.50;62.30;;;;;;5035183;28;20059;-76
2022/10/04 11:38:21;;;;;;;14.50;2.60;;;26.40;62.70;;;;;;5053155;28;20037;-76
2022/10/04 11:41:28;;;;;;;8.18;2.60;;;26.50;61.90;;;;;;5053111;28;20036;-78
2022/10/04 11:44:18;;;;;;;16.52;3.42;;;26.50;61.00;;;;;;5052834;28;20040;-77
2022/10/04 11:47:08;;;;;;;7.95;2.65;;;26.60;61.90;;;;;;5052175;28;20048;-75
2022/10/04 11:50:06;;;;;;;7.53;2.60;;;26.60;61.00;;;;;;5043601;28;20021;-76
2022/10/04 11:52:48;;;;;;;14.25;3.25;;;26.50;61.10;;;;;;5052266;28;20017;-75
2022/10/04 11:55:53;;;;;;;9.55;2.95;;;26.30;60.90;;;;;;5052571;28;20021;-76
2022/10/04 11:58:46;;;;;;;10.13;3.25;;;26.30;60.30;;;;;;5051867;28;20565;-75
2022/10/04 12:01:37;;;;;;;17.42;4.32;;;26.50;60.20;;;;;;5049706;28;20025;-77
2022/10/04 12:04:16;;;;;;;11.23;3.95;;;26.70;60.70;;;;;;5048888;28;20068;-77
2022/10/04 12:07:21;;;;;;;14.68;3.50;;;26.80;59.50;;;;;;5054558;28;20057;-79
2022/10/04 12:09:55;;;;;;;8.60;2.95;;;26.80;60.30;;;;;;5052992;28;20347;-77
2022/10/04 12:12:35;;;;;;;10.38;2.80;;;26.80;61.80;;;;;;5055556;28;20021;-76
2022/10/04 12:15:39;;;;;;;11.15;2.95;;;26.90;60.80;;;;;;5055280;28;20466;-76
2022/10/04 12:18:31;;;;;;;6.30;2.35;;;26.80;57.60;;;;;;5035634;28;20045;-75
2022/10/04 12:21:18;;;;;;;8.15;2.75;;;26.60;58.30;;;;;;5035626;28;20021;-78
2022/10/04 12:24:14;;;;;;;8.60;2.42;;;26.60;58.30;;;;;;5035434;28;20036;-77
2022/10/04 12:27:05;;;;;;;8.18;2.85;;;26.60;58.00;;;;;;5035214;28;20049;-77
2022/10/04 12:30:01;;;;;;;9.07;2.78;;;26.70;59.20;;;;;;5055247;28;20070;-77
2022/10/04 12:33:14;;;;;;;11.10;2.58;;;26.70;59.50;;;;;;5036796;28;20110;-76
2022/10/04 12:35:43;;;;;;;8.85;2.85;;;26.80;59.70;;;;;;4950064;28;20109;-75
2022/10/04 12:38:26;;;;;;;7.53;2.35;;;26.70;60.50;;;;;;5036668;28;20041;-76
2022/10/04 12:41:03;;;;;;;6.70;2.10;;;26.80;60.60;;;;;;5055158;28;20182;-75
2022/10/04 12:43:59;;;;;;;8.20;1.92;;;26.90;60.70;;;;;;5052185;28;20018;-78
2022/10/04 12:46:56;;;;;;;9.07;1.80;;;27.10;60.60;;;;;;5052846;28;20056;-76
2022/10/04 12:49:37;;;;;;;7.80;2.00;;;27.10;60.90;;;;;;5044843;28;20071;-74
2022/10/04 12:52:20;;;;;;;10.52;1.80;;;27.10;60.60;;;;;;5037920;28;20096;-80
2022/10/04 12:55:22;;;;;;;12.43;2.53;;;27.10;60.70;;;;;;5033327;28;20379;-80
2022/10/04 12:58:01;;;;;;;6.55;1.88;;;27.30;59.40;;;;;;5035475;28;20042;-78
2022/10/04 13:00:34;;;;;;;9.00;2.30;;;27.40;59.90;;;;;;5034827;28;20029;-80
2022/10/04 13:03:21;;;;;;;11.82;2.10;;;27.50;59.30;;;;;;5037911;28;20135;-76
2022/10/04 13:05:53;;;;;;;10.88;3.22;;;27.50;58.70;;;;;;5040499;28;20385;-74
2022/10/04 13:08:50;;;;;;;7.43;2.25;;;27.60;58.00;;;;;;5039506;28;20385;-78
2022/10/04 13:11:43;;;;;;;7.68;2.22;;;27.80;57.80;;;;;;5033739;28;20055;-79
2022/10/04 13:14:40;;;;;;;7.88;1.75;;;27.90;57.00;;;;;;5038567;28;20043;-81
2022/10/04 13:17:30;;;;;;;5.50;1.70;;;28.00;56.70;;;;;;5037822;28;20037;-79
2022/10/04 13:20:30;;;;;;;9.10;2.55;;;28.00;57.20;;;;;;5007203;28;20055;-77
2022/10/04 13:23:16;;;;;;;7.20;2.08;;;28.00;57.50;;;;;;5037314;28;20405;-79
2022/10/04 13:25:51;;;;;;;12.35;2.30;;;28.00;57.20;;;;;;5037426;28;20044;-84
2022/10/04 13:28:24;;;;;;;7.85;2.13;;;28.00;57.40;;;;;;5037694;28;20119;-78
2022/10/04 13:31:05;;;;;;;7.57;2.38;;;28.10;58.30;;;;;;5037953;28;20056;-80
2022/10/04 13:33:44;;;;;;;8.60;1.95;;;28.10;57.70;;;;;;5020365;28;20032;-79
2022/10/04 13:36:28;;;;;;;11.55;2.42;;;28.10;57.90;;;;;;5037065;28;20052;-80
2022/10/04 13:39:06;;;;;;;9.30;2.50;;;28.10;57.40;;;;;;5037222;28;20159;-80
2022/10/04 13:41:59;;;;;;;13.05;1.92;;;28.10;56.60;;;;;;5036885;28;20076;-80
2022/10/04 13:44:43;;;;;;;5.97;2.00;;;28.10;56.70;;;;;;5035373;28;20111;-75
2022/10/04 13:47:12;;;;;;;5.38;1.67;;;28.10;57.00;;;;;;5037186;28;20045;-80
2022/10/04 13:50:21;;;;;;;13.27;2.00;;;28.10;56.80;;;;;;5038178;28;20094;-82
2022/10/04 13:56:47;;;;;;;4.10;1.90;;;28.00;56.50;;;;;;5028255;28;20555;-79
2022/10/04 13:59:24;;;;;;;7.43;1.98;;;27.80;56.40;;;;;;5037538;28;20032;-77